createdAt,value
2022-12-13T00:01:54.526Z,-1.24
2022-12-13T00:04:24.607Z,-1.24
2022-12-13T00:06:55.356Z,-1.28
2022-12-13T00:09:24.382Z,-1.24
2022-12-13T00:11:54.942Z,-1.29
2022-12-13T00:14:23.329Z,-1.27
2022-12-13T00:16:52.266Z,-1.28
2022-12-13T00:19:21.552Z,-1.27
2022-12-13T00:21:51.156Z,-1.24
2022-12-13T00:24:20.994Z,-1.28
2022-12-13T00:26:49.308Z,-1.25
2022-12-13T00:29:17.722Z,-1.21
2022-12-13T00:32:01.615Z,-1.24
2022-12-13T00:34:30.441Z,-1.29
2022-12-13T00:37:00.466Z,-1.34
2022-12-13T00:39:30.634Z,-1.25
2022-12-13T00:41:59.516Z,-1.24
2022-12-13T00:44:28.244Z,-1.23
2022-12-13T00:46:56.757Z,-1.27
2022-12-13T00:49:25.447Z,-1.34
2022-12-13T00:51:53.954Z,-1.31
2022-12-13T00:54:22.336Z,-1.31
2022-12-13T00:56:52.795Z,-1.25
2022-12-13T00:59:21.389Z,-1.19
2022-12-13T01:01:52.289Z,-1.27
2022-12-13T01:04:20.739Z,-1.22
2022-12-13T01:06:51.630Z,-1.27
2022-12-13T01:09:22.466Z,-1.25
2022-12-13T01:11:52.547Z,-1.26
2022-12-13T01:14:21.715Z,-1.40
2022-12-13T01:16:50.204Z,-1.26
2022-12-13T01:19:18.780Z,-1.32
2022-12-13T01:21:47.182Z,-1.33
2022-12-13T01:24:16.006Z,-1.31
2022-12-13T01:26:44.351Z,-1.28
2022-12-13T01:29:14.374Z,-1.33
2022-12-13T01:31:42.836Z,-1.33
2022-12-13T01:34:13.187Z,-1.31
2022-12-13T01:36:42.994Z,-1.36
2022-12-13T01:39:14.553Z,-1.36
2022-12-13T01:41:45.033Z,-1.36
2022-12-13T01:44:46.370Z,-1.38
2022-12-13T01:47:20.036Z,-1.36
2022-12-13T01:49:48.988Z,-1.31
2022-12-13T01:52:18.913Z,-1.37
2022-12-13T01:54:50.379Z,-1.37
2022-12-13T01:57:21.659Z,-1.35
2022-12-13T01:59:51.956Z,-1.41
2022-12-13T02:02:22.532Z,-1.38
2022-12-13T02:04:56.868Z,-1.37
2022-12-13T02:07:28.805Z,-1.38
2022-12-13T02:10:00.461Z,-1.37
2022-12-13T02:12:31.048Z,-1.40
2022-12-13T02:15:02.123Z,-1.38
2022-12-13T02:17:45.662Z,-1.34
2022-12-13T02:21:14.719Z,-1.33
2022-12-13T02:24:08.808Z,-1.38
2022-12-13T02:26:56.552Z,-1.33
2022-12-13T02:30:12.038Z,-1.42
2022-12-13T02:32:53.410Z,-1.52
2022-12-13T02:35:27.560Z,-1.47
2022-12-13T02:38:03.134Z,-1.56
2022-12-13T02:40:35.277Z,-1.58
2022-12-13T02:43:08.702Z,-1.57
2022-12-13T02:45:42.835Z,-1.57
2022-12-13T02:48:16.309Z,-1.54
2022-12-13T02:50:45.176Z,-1.50
2022-12-13T02:53:15.495Z,-1.56
2022-12-13T02:55:44.026Z,-1.62
2022-12-13T02:58:15.178Z,-1.62
2022-12-13T03:00:59.420Z,-1.64
2022-12-13T03:03:39.539Z,-1.67
2022-12-13T03:06:34.531Z,-1.64
2022-12-13T03:09:21.189Z,-1.59
2022-12-13T03:12:23.977Z,-1.64
2022-12-13T03:15:00.122Z,-1.69
2022-12-13T03:17:33.778Z,-1.71
2022-12-13T03:20:12.940Z,-1.73
2022-12-13T03:22:51.928Z,-1.70
2022-12-13T03:25:30.962Z,-1.73
2022-12-13T03:28:02.244Z,-1.76
2022-12-13T03:30:32.320Z,-1.82
2022-12-13T03:33:01.375Z,-1.82
2022-12-13T03:35:34.754Z,-1.86
2022-12-13T03:38:22.438Z,-1.86
2022-12-13T03:40:54.373Z,-1.94
2022-12-13T03:43:23.445Z,-1.97
2022-12-13T03:45:52.600Z,-2.03
2022-12-13T03:48:23.195Z,-2.07
2022-12-13T03:50:55.456Z,-1.99
2022-12-13T03:53:33.226Z,-2.09
2022-12-13T03:56:03.514Z,-2.19
2022-12-13T03:58:35.648Z,-2.05
2022-12-13T04:01:07.810Z,-2.07
2022-12-13T04:03:36.528Z,-2.11
2022-12-13T04:06:07.158Z,-2.14
2022-12-13T04:08:36.119Z,-2.12
2022-12-13T04:11:26.291Z,-2.10
2022-12-13T04:13:54.337Z,-2.11
2022-12-13T04:16:23.156Z,-2.08
2022-12-13T04:18:51.883Z,-2.10
2022-12-13T04:21:21.771Z,-2.03
2022-12-13T04:23:50.503Z,-2.06
2022-12-13T04:26:18.888Z,-2.08
2022-12-13T04:28:54.035Z,-2.20
2022-12-13T04:31:23.936Z,-2.17
2022-12-13T04:33:53.167Z,-2.12
2022-12-13T04:36:32.366Z,-2.13
2022-12-13T04:39:02.498Z,-2.10
2022-12-13T04:41:34.096Z,-2.10
2022-12-13T04:44:04.016Z,-2.06
2022-12-13T04:46:32.466Z,-2.03
2022-12-13T04:49:01.064Z,-2.03
2022-12-13T04:51:31.527Z,-2.02
2022-12-13T04:54:24.311Z,-2.00
2022-12-13T04:56:48.509Z,-2.00
2022-12-13T04:59:17.237Z,-1.97
2022-12-13T05:01:45.626Z,-1.93
2022-12-13T05:04:14.500Z,-1.96
2022-12-13T05:06:44.582Z,-2.00
2022-12-13T05:09:12.952Z,-2.01
2022-12-13T05:11:45.708Z,-2.02
2022-12-13T05:14:14.569Z,-2.02
2022-12-13T05:16:51.959Z,-2.00
2022-12-13T05:19:20.805Z,-2.00
2022-12-13T05:21:51.522Z,-2.01
2022-12-13T05:24:20.016Z,-2.04
2022-12-13T05:26:48.550Z,-2.04
2022-12-13T05:29:16.909Z,-2.06
2022-12-13T05:31:45.369Z,-2.06
2022-12-13T05:34:13.779Z,-2.09
2022-12-13T05:36:42.167Z,-2.14
2022-12-13T05:39:27.895Z,-2.11
2022-12-13T05:42:01.036Z,-2.11
2022-12-13T05:44:31.710Z,-2.13
2022-12-13T05:47:02.324Z,-2.12
2022-12-13T05:49:31.457Z,-2.13
2022-12-13T05:51:59.928Z,-2.13
2022-12-13T05:54:29.724Z,-2.16
2022-12-13T05:56:58.894Z,-2.11
2022-12-13T05:59:27.581Z,-2.11
2022-12-13T06:01:56.035Z,-2.11
2022-12-13T06:04:24.476Z,-2.16
2022-12-13T06:06:53.168Z,-2.11
2022-12-13T06:09:22.316Z,-2.08
2022-12-13T06:11:52.120Z,-2.07
2022-12-13T06:14:29.743Z,-2.09
2022-12-13T06:16:58.165Z,-2.09
2022-12-13T06:19:27.093Z,-2.06
2022-12-13T06:21:56.552Z,-2.08
2022-12-13T06:24:27.611Z,-2.04
2022-12-13T06:27:01.114Z,-2.07
2022-12-13T06:29:29.470Z,-2.01
2022-12-13T06:32:02.188Z,-1.99
2022-12-13T06:34:34.025Z,-1.95
2022-12-13T06:37:02.772Z,-1.96
2022-12-13T06:39:32.297Z,-1.90
2022-12-13T06:42:03.667Z,-1.88
2022-12-13T06:44:32.178Z,-2.05
2022-12-13T06:47:10.352Z,-1.87
2022-12-13T06:49:42.688Z,-1.90
2022-12-13T06:52:13.274Z,-1.84
2022-12-13T06:54:42.598Z,-1.81
2022-12-13T06:57:13.175Z,-1.86
2022-12-13T06:59:42.340Z,-1.86
2022-12-13T07:02:15.355Z,-1.92
2022-12-13T07:04:53.989Z,-1.89
2022-12-13T07:07:22.381Z,-1.85
2022-12-13T07:09:50.847Z,-1.82
2022-12-13T07:12:21.216Z,-1.87
2022-12-13T07:14:49.577Z,-1.88
2022-12-13T07:17:32.750Z,-1.87
2022-12-13T07:20:03.872Z,-1.86
2022-12-13T07:22:34.558Z,-1.79
2022-12-13T07:25:05.152Z,-1.80
2022-12-13T07:27:35.912Z,-1.78
2022-12-13T07:30:04.777Z,-1.74
2022-12-13T07:32:33.158Z,-1.75
2022-12-13T07:35:02.276Z,-1.72
2022-12-13T07:37:31.289Z,-1.75
2022-12-13T07:40:04.438Z,-1.75
2022-12-13T07:42:35.858Z,-1.77
2022-12-13T07:45:05.153Z,-1.76
2022-12-13T07:47:33.698Z,-1.76
2022-12-13T07:50:02.286Z,-1.76
2022-12-13T07:52:30.906Z,-1.74
2022-12-13T07:54:59.329Z,-1.75
2022-12-13T07:57:28.310Z,-1.77
2022-12-13T07:59:58.452Z,-1.77
2022-12-13T08:02:27.244Z,-1.75
2022-12-13T08:04:55.950Z,-1.72
2022-12-13T08:07:24.484Z,-1.72
2022-12-13T08:09:53.452Z,-1.69
2022-12-13T08:12:22.486Z,-1.67
2022-12-13T08:14:53.228Z,-1.61
2022-12-13T08:17:23.642Z,-1.61
2022-12-13T08:19:52.052Z,-1.61
2022-12-13T08:22:24.145Z,-1.58
2022-12-13T08:24:53.041Z,-1.64
2022-12-13T08:27:21.446Z,-1.65
2022-12-13T08:29:49.863Z,-1.63
2022-12-13T08:32:18.225Z,-1.65
2022-12-13T08:34:48.134Z,-1.56
2022-12-13T08:37:17.060Z,-1.56
2022-12-13T08:39:45.931Z,-1.54
2022-12-13T08:42:19.528Z,-1.61
2022-12-13T08:44:50.811Z,-1.63
2022-12-13T08:47:24.858Z,-1.65
2022-12-13T08:50:01.513Z,-1.70
2022-12-13T08:52:38.950Z,-1.68
2022-12-13T08:55:10.117Z,-1.68
2022-12-13T08:57:38.746Z,-1.66
2022-12-13T09:00:08.265Z,-1.66
2022-12-13T09:02:37.992Z,-1.65
2022-12-13T09:05:10.248Z,-1.64
2022-12-13T09:07:39.869Z,-1.67
2022-12-13T09:10:25.404Z,-1.69
2022-12-13T09:13:01.923Z,-1.71
2022-12-13T09:15:34.597Z,-1.72
2022-12-13T09:18:04.824Z,-1.70
2022-12-13T09:20:40.804Z,-1.66
2022-12-13T09:23:14.063Z,-1.64
2022-12-13T09:26:05.687Z,-1.55
2022-12-13T09:28:35.651Z,-1.50
2022-12-13T09:31:09.497Z,-1.57
2022-12-13T09:33:41.379Z,-1.54
2022-12-13T09:36:13.900Z,-1.50
2022-12-13T09:38:42.342Z,-1.48
2022-12-13T09:41:19.472Z,-1.49
2022-12-13T09:43:51.434Z,-1.42
2022-12-13T09:46:34.477Z,-1.38
2022-12-13T09:49:23.337Z,-1.32
2022-12-13T09:52:11.705Z,-1.25
2022-12-13T09:54:48.627Z,-1.22
2022-12-13T09:57:31.150Z,-1.18
2022-12-13T10:00:03.634Z,-1.18
2022-12-13T10:02:35.724Z,-1.13
2022-12-13T10:05:21.971Z,-1.16
2022-12-13T10:07:56.449Z,-1.26
2022-12-13T10:10:25.515Z,-1.18
2022-12-13T10:12:59.798Z,-1.19
2022-12-13T10:15:30.101Z,-1.19
2022-12-13T10:17:59.908Z,-1.14
2022-12-13T10:20:30.340Z,-1.14
2022-12-13T10:23:35.759Z,-1.12
2022-12-13T10:25:54.986Z,-1.10
2022-12-13T10:28:34.889Z,-1.29
2022-12-13T10:31:03.637Z,-1.27
2022-12-13T10:33:34.160Z,-1.12
2022-12-13T10:36:15.155Z,-0.97
2022-12-13T10:38:46.960Z,-0.92
2022-12-13T10:41:31.208Z,-0.99
2022-12-13T10:44:20.247Z,-0.97
2022-12-13T10:47:04.823Z,-0.98
2022-12-13T10:49:40.652Z,-0.92
2022-12-13T10:52:30.943Z,-0.84
2022-12-13T10:55:23.767Z,-0.94
2022-12-13T10:57:54.253Z,-0.98
2022-12-13T11:00:42.051Z,-1.09
2022-12-13T11:03:14.093Z,-1.07
2022-12-13T11:05:51.795Z,-1.04
2022-12-13T11:08:27.173Z,-0.95
2022-12-13T11:11:00.898Z,-0.86
2022-12-13T11:13:42.081Z,-0.98
2022-12-13T11:16:24.395Z,-0.98
2022-12-13T11:18:56.772Z,-0.99
2022-12-13T11:21:27.843Z,-0.99
2022-12-13T11:24:01.612Z,-0.97
2022-12-13T11:26:33.870Z,-0.91
2022-12-13T11:29:44.628Z,-0.95
2022-12-13T11:32:24.331Z,-0.96
2022-12-13T11:34:59.027Z,-0.97
2022-12-13T11:37:33.480Z,-0.90
2022-12-13T11:40:06.926Z,-0.96
2022-12-13T11:42:43.130Z,-0.89
2022-12-13T11:45:22.859Z,-0.96
2022-12-13T11:47:59.887Z,-0.84
2022-12-13T11:50:32.669Z,-0.76
2022-12-13T11:53:19.336Z,-0.71
2022-12-13T11:55:54.270Z,-0.74
2022-12-13T11:59:01.729Z,-0.70
2022-12-13T12:01:25.692Z,-0.70
2022-12-13T12:04:00.361Z,-0.73
2022-12-13T12:06:34.569Z,-0.70
2022-12-13T12:09:05.724Z,-0.73
2022-12-13T12:11:42.573Z,-0.74
2022-12-13T12:14:16.016Z,-0.73
2022-12-13T12:16:50.334Z,-0.66
2022-12-13T12:19:22.142Z,-0.84
2022-12-13T12:22:15.245Z,-0.92
2022-12-13T12:24:55.924Z,-0.99
2022-12-13T12:27:32.564Z,-0.95
2022-12-13T12:30:23.114Z,-0.90
2022-12-13T12:33:03.240Z,-0.81
2022-12-13T12:36:04.584Z,-0.81
2022-12-13T12:39:04.747Z,-0.87
2022-12-13T12:41:45.628Z,-0.78
2022-12-13T12:44:30.656Z,-0.72
2022-12-13T12:50:14.882Z,-0.53
2022-12-13T12:52:56.235Z,-0.41
2022-12-13T12:55:38.389Z,-0.26
2022-12-13T12:58:17.040Z,-0.01
2022-12-13T13:00:55.811Z,0.13
2022-12-13T13:03:27.565Z,0.26
2022-12-13T13:06:02.615Z,0.15
2022-12-13T13:08:38.811Z,0.21
2022-12-13T13:11:23.862Z,0.20
2022-12-13T13:14:06.736Z,0.19
2022-12-13T13:16:39.083Z,0.33
2022-12-13T13:19:42.727Z,0.43
2022-12-13T13:22:32.227Z,0.49
2022-12-13T13:25:20.529Z,0.53
2022-12-13T13:27:50.999Z,0.46
2022-12-13T13:30:21.419Z,0.46
2022-12-13T13:32:51.403Z,0.21
2022-12-13T13:35:56.951Z,0.41
2022-12-13T13:39:01.177Z,0.38
2022-12-13T13:41:56.960Z,0.70
2022-12-13T13:44:56.557Z,0.76
2022-12-13T13:47:40.205Z,0.89
2022-12-13T13:50:41.557Z,0.96
2022-12-13T13:53:46.159Z,0.94
2022-12-13T13:56:45.405Z,0.80
2022-12-13T14:00:01.471Z,0.64
2022-12-13T14:03:35.367Z,0.80
2022-12-13T14:06:39.210Z,0.68
2022-12-13T14:09:38.663Z,0.61
2022-12-13T14:12:36.102Z,0.55
2022-12-13T14:15:51.446Z,0.44
2022-12-13T14:19:04.997Z,0.38
2022-12-13T14:21:48.013Z,0.34
2022-12-13T14:24:28.531Z,0.29
2022-12-13T14:27:11.756Z,0.23
2022-12-13T14:29:48.413Z,0.26
2022-12-13T14:32:29.320Z,0.18
2022-12-13T14:34:59.467Z,0.11
2022-12-13T14:37:59.327Z,0.02
2022-12-13T14:40:34.107Z,-0.01
2022-12-13T14:43:06.357Z,-0.09
2022-12-13T14:45:38.956Z,-0.13
2022-12-13T14:48:16.097Z,-0.11
2022-12-13T14:50:57.017Z,-0.17
2022-12-13T14:53:29.969Z,-0.21
2022-12-13T14:56:09.039Z,-0.28
2022-12-13T14:58:38.549Z,-0.36
2022-12-13T15:01:10.410Z,-0.36
2022-12-13T15:03:39.012Z,-0.35
2022-12-13T15:06:08.710Z,-0.35
2022-12-13T15:08:41.135Z,-0.35
2022-12-13T15:11:11.507Z,-0.32
2022-12-13T15:13:43.945Z,-0.30
2022-12-13T15:16:22.637Z,-0.27
2022-12-13T15:18:51.488Z,-0.28
2022-12-13T15:21:23.923Z,-0.32
2022-12-13T15:23:54.420Z,-0.33
2022-12-13T15:26:28.401Z,-0.38
2022-12-13T15:29:00.766Z,-0.35
2022-12-13T15:31:30.106Z,-0.36
2022-12-13T15:34:29.947Z,-0.39
2022-12-13T15:37:01.015Z,-0.45
2022-12-13T15:39:31.345Z,-0.50
2022-12-13T15:42:01.489Z,-0.54
2022-12-13T15:44:31.497Z,-0.59
2022-12-13T15:47:04.388Z,-0.66
2022-12-13T15:49:36.449Z,-0.66
2022-12-13T15:52:08.357Z,-0.68
2022-12-13T15:54:37.044Z,-0.71
2022-12-13T15:57:14.938Z,-0.71
2022-12-13T15:59:44.722Z,-0.71
2022-12-13T16:02:19.004Z,-0.73
2022-12-13T16:04:47.905Z,-0.75
2022-12-13T16:07:24.957Z,-0.77
2022-12-13T16:09:55.188Z,-0.78
2022-12-13T16:12:37.313Z,-0.82
2022-12-13T16:15:29.568Z,-0.82
2022-12-13T16:18:08.067Z,-0.85
2022-12-13T16:20:36.981Z,-0.91
2022-12-13T16:23:09.129Z,-0.94
2022-12-13T16:25:38.006Z,-0.96
2022-12-13T16:28:08.336Z,-1.02
2022-12-13T16:31:11.087Z,-1.05
2022-12-13T16:33:39.544Z,-1.13
2022-12-13T16:36:10.003Z,-1.20
2022-12-13T16:38:38.544Z,-1.23
2022-12-13T16:41:09.004Z,-1.24
2022-12-13T16:43:46.796Z,-1.27
2022-12-13T16:47:13.709Z,-1.28
2022-12-13T16:49:17.188Z,-1.39
2022-12-13T16:51:48.582Z,-1.33
2022-12-13T16:54:18.577Z,-1.36
2022-12-13T16:56:47.386Z,-1.39
2022-12-13T16:59:19.583Z,-1.41
2022-12-13T17:01:48.239Z,-1.47
2022-12-13T17:04:21.118Z,-1.45
2022-12-13T17:06:51.074Z,-1.48
2022-12-13T17:09:23.075Z,-1.58
2022-12-13T17:11:51.708Z,-1.63
2022-12-13T17:14:21.516Z,-1.65
2022-12-13T17:16:50.199Z,-1.68
2022-12-13T17:19:19.040Z,-1.73
2022-12-13T17:21:48.585Z,-1.72
2022-12-13T17:24:23.495Z,-1.76
2022-12-13T17:26:55.293Z,-1.80
2022-12-13T17:29:26.374Z,-1.82
2022-12-13T17:31:54.711Z,-1.84
2022-12-13T17:34:23.101Z,-1.88
2022-12-13T17:36:51.464Z,-1.91
2022-12-13T17:39:19.807Z,-1.92
2022-12-13T17:41:54.855Z,-1.96
2022-12-13T17:44:26.213Z,-2.06
2022-12-13T17:46:55.755Z,-2.09
2022-12-13T17:49:24.631Z,-2.11
2022-12-13T17:51:54.468Z,-2.13
2022-12-13T17:54:24.255Z,-2.16
2022-12-13T17:56:52.914Z,-2.18
2022-12-13T17:59:21.676Z,-2.20
2022-12-13T18:01:52.164Z,-2.26
2022-12-13T18:04:20.783Z,-2.29
2022-12-13T18:06:49.182Z,-2.30
2022-12-13T18:09:17.506Z,-2.30
2022-12-13T18:11:45.996Z,-2.35
2022-12-13T18:14:14.291Z,-2.46
2022-12-13T18:16:42.940Z,-2.53
2022-12-13T18:19:14.944Z,-2.55
2022-12-13T18:21:44.548Z,-2.56
2022-12-13T18:24:13.446Z,-2.53
2022-12-13T18:26:41.825Z,-2.56
2022-12-13T18:29:10.391Z,-2.52
2022-12-13T18:31:38.927Z,-2.55
2022-12-13T18:34:07.325Z,-2.56
2022-12-13T18:36:37.554Z,-2.55
2022-12-13T18:39:06.057Z,-2.56
2022-12-13T18:41:36.404Z,-2.54
2022-12-13T18:44:06.953Z,-2.55
2022-12-13T18:46:37.529Z,-2.54
2022-12-13T18:49:07.107Z,-2.55
2022-12-13T18:51:37.041Z,-2.55
2022-12-13T18:54:05.585Z,-2.58
2022-12-13T18:56:33.995Z,-2.61
2022-12-13T18:59:02.583Z,-2.60
2022-12-13T19:01:31.462Z,-2.72
2022-12-13T19:04:00.090Z,-2.78
2022-12-13T19:06:29.474Z,-2.88
2022-12-13T19:09:00.115Z,-2.84
2022-12-13T19:11:29.781Z,-2.85
2022-12-13T19:13:58.422Z,-2.87
2022-12-13T19:16:27.966Z,-2.91
2022-12-13T19:18:56.508Z,-2.91
2022-12-13T19:21:25.256Z,-2.91
2022-12-13T19:23:57.844Z,-3.03
2022-12-13T19:26:30.056Z,-2.96
2022-12-13T19:28:59.798Z,-2.96
2022-12-13T19:31:32.359Z,-2.95
2022-12-13T19:34:01.713Z,-2.91
2022-12-13T19:36:30.317Z,-2.91
2022-12-13T19:38:58.783Z,-2.91
2022-12-13T19:41:29.752Z,-2.98
2022-12-13T19:43:58.037Z,-3.02
2022-12-13T19:46:26.639Z,-2.97
2022-12-13T19:48:55.057Z,-2.99
2022-12-13T19:51:23.588Z,-3.00
2022-12-13T19:53:51.975Z,-3.03
2022-12-13T19:56:24.995Z,-3.05
2022-12-13T19:58:55.132Z,-3.07
2022-12-13T20:01:23.630Z,-3.04
2022-12-13T20:03:52.579Z,-3.06
2022-12-13T20:06:22.832Z,-3.06
2022-12-13T20:08:51.797Z,-3.07
2022-12-13T20:11:22.202Z,-3.11
2022-12-13T20:13:54.466Z,-3.10
2022-12-13T20:16:27.155Z,-3.13
2022-12-13T20:18:57.790Z,-3.12
2022-12-13T20:21:27.446Z,-3.16
2022-12-13T20:23:56.466Z,-3.13
2022-12-13T20:26:27.458Z,-3.18
2022-12-13T20:28:55.955Z,-3.24
2022-12-13T20:31:29.169Z,-3.24
2022-12-13T20:33:58.578Z,-3.25
2022-12-13T20:36:28.923Z,-3.29
2022-12-13T20:38:59.744Z,-3.34
2022-12-13T20:41:30.155Z,-3.42
2022-12-13T20:44:00.446Z,-3.45
2022-12-13T20:46:32.231Z,-3.46
2022-12-13T20:49:03.252Z,-3.43
2022-12-13T20:51:33.390Z,-3.42
2022-12-13T20:54:01.835Z,-3.39
2022-12-13T20:56:32.188Z,-3.01
2022-12-13T20:59:01.012Z,-2.98
2022-12-13T21:01:32.954Z,-3.00
2022-12-13T21:04:02.825Z,-3.11
2022-12-13T21:06:33.213Z,-3.10
2022-12-13T21:09:03.084Z,-3.10
2022-12-13T21:11:33.771Z,-3.10
2022-12-13T21:14:08.324Z,-3.09
2022-12-13T21:16:43.431Z,-3.11
2022-12-13T21:19:13.915Z,-3.12
2022-12-13T21:21:43.039Z,-3.12
2022-12-13T21:24:14.526Z,-3.15
2022-12-13T21:26:43.510Z,-3.17
2022-12-13T21:29:13.245Z,-3.12
2022-12-13T21:31:44.247Z,-3.21
2022-12-13T21:34:17.845Z,-3.17
2022-12-13T21:36:47.763Z,-3.29
2022-12-13T21:39:17.995Z,-3.29
2022-12-13T21:41:46.728Z,-3.33
2022-12-13T21:44:17.072Z,-3.35
2022-12-13T21:47:11.238Z,-3.42
2022-12-13T21:49:35.846Z,-3.46
2022-12-13T21:52:04.260Z,-3.46
2022-12-13T21:54:32.588Z,-3.56
2022-12-13T21:57:18.454Z,-3.61
2022-12-13T21:59:47.675Z,-3.66
2022-12-13T22:02:19.460Z,-3.62
2022-12-13T22:04:49.462Z,-3.66
2022-12-13T22:07:21.290Z,-3.72
2022-12-13T22:09:51.607Z,-3.69
2022-12-13T22:12:23.332Z,-3.74
2022-12-13T22:14:52.261Z,-3.78
2022-12-13T22:17:29.717Z,-3.83
2022-12-13T22:20:03.459Z,-3.83
2022-12-13T22:22:32.338Z,-3.84
2022-12-13T22:25:01.052Z,-3.92
2022-12-13T22:27:29.434Z,-3.95
2022-12-13T22:29:59.832Z,-3.97
2022-12-13T22:32:31.688Z,-4.05
2022-12-13T22:35:00.247Z,-4.06
2022-12-13T22:37:28.646Z,-4.17
2022-12-13T22:39:57.249Z,-4.23
2022-12-13T22:42:26.215Z,-4.73
2022-12-13T22:44:54.590Z,-4.65
2022-12-13T22:47:22.944Z,-4.66
2022-12-13T22:49:52.858Z,-4.73
2022-12-13T22:52:21.341Z,-4.72
2022-12-13T22:54:49.741Z,-4.65
2022-12-13T22:57:18.313Z,-4.60
2022-12-13T22:59:46.697Z,-4.58
2022-12-13T23:02:15.205Z,-4.65
2022-12-13T23:04:44.007Z,-4.66
2022-12-13T23:07:14.216Z,-4.88
2022-12-13T23:09:43.556Z,-4.93
2022-12-13T23:12:30.827Z,-4.87
2022-12-13T23:14:59.292Z,-4.81
2022-12-13T23:17:27.807Z,-4.79
2022-12-13T23:19:56.975Z,-4.76
2022-12-13T23:22:27.819Z,-4.79
2022-12-13T23:24:57.033Z,-4.85
2022-12-13T23:27:25.555Z,-4.88
2022-12-13T23:29:54.014Z,-4.90
2022-12-13T23:32:22.477Z,-4.90
2022-12-13T23:34:50.783Z,-4.97
2022-12-13T23:37:19.215Z,-4.93
2022-12-13T23:39:49.122Z,-4.82
2022-12-13T23:42:17.633Z,-4.87
2022-12-13T23:44:46.084Z,-4.98
2022-12-13T23:47:14.590Z,-5.05
2022-12-13T23:49:43.056Z,-5.19
2022-12-13T23:52:11.392Z,-5.22
2022-12-13T23:54:39.800Z,-5.40
2022-12-13T23:57:09.670Z,-5.42
2022-12-13T23:59:38.047Z,-5.59
